Andalusia, PA

5:39 AM EST on January 21, 2017 (GMT -0500)
Chalfont | | Change Station
Active Advisory: Gale Watch

Elev 82 ft 40.08 °N, 74.98 °W | Updated 14 seconds ago

Overcast
Overcast
42.5 °F
Feels Like 42 °F
N
0.0
Wind Variable Wind from SSW

Today
High -- | Low -- °F
--% Chance of Precip.
Yesterday
High -- | Low -- °F
Precip. -- in
Pressure 29.93 in
Visibility 1.0 miles
Clouds Overcast 200 ft
Windchill 42 °F
Dew Point 41 °F
Humidity 96%
Rainfall 0.00 in
Snow Depth Not available.
7:16 AM 5:06 PM
Last Quarter, 36% visible
METAR KPNE 210954Z AUTO 00000KT 1SM BR OVC002 06/05 A2992 RMK AO2 SLP133 T00610050 TSNO RVRNO
Pressure 29.93 in
Visibility 1.0 miles
Clouds Overcast 200 ft
Windchill 42 °F
Dew Point 41 °F
Humidity 96%
Rainfall 0.00 in
Snow Depth Not available.
7:16 AM 5:06 PM
Last Quarter, 36% visible
METAR KPNE 210954Z AUTO 00000KT 1SM BR OVC002 06/05 A2992 RMK AO2 SLP133 T00610050 TSNO RVRNO

Get Your Daily Forecast Email!

Thanks for signing up!

Be on the lookout for a verification email in your inbox.

You'll start receiving the daily forecast at 8 AM.

×

10-Day Weather Forecast

Almanac

Astronomy

Jan. 21, 2017 Rise Set
Actual Time
Civil Twilight
Nautical Twilight
Astronomical Twilight
Moon
Length of Visible Light
Length of Day
Tomorrow will be .
, % of the Moon is Illuminated

Today's Extremes

State Highs State Lows

Community

WunderPhotos

Upload Photos

1,962,540 photos uploaded!

WunderBlog® & News

Nearby

Air Quality

  Air Quality AQ Index Pollutant
Not available.

Snow Depth

Station Depth Elevation

Earthquake Activity

City Distance Mag. Time & Date
Minimum magnitude displayed is 2.5.

Coastal Water Temperatures

Place Temperature

Stations

Nearby Weather Stations

Station Location Temp. Windchill Dew Point Humidity Wind Precip. Elev Updated Type
                   

Watches & Warnings

Gale Watch
Issued: 4:28 AM EST Jan. 21, 2017 – National Weather Service

... Gale watch now in effect from late Sunday night through Monday
afternoon...

* location... the coastal ocean waters of southern New Jersey and
Delaware and Delaware Bay.

* Winds... east 25 to 35 kt with gusts up to 45 kt.

* Seas... 6 to 9 feet.

* Timing... winds increase late Sunday night... and then the
strongest winds are expected on Monday... possibly lingering
into Monday night.

Precautionary/preparedness actions...

A gale watch is issued when the risk of gale force winds of 34 to
47 knots has significantly increased... but the specific timing
and/or location is still uncertain. It is intended to provide
additional lead time for mariners who may wish to consider
altering their plans.